Time;durP1;ratioP1;P1;durP2;ratioP2;P2;SDS_P1;SDS_P2;PMS_P1;PMS_P2;Temp;Humidity;BMP_temperature;BMP_pressure;BME280_temperature;BME280_humidity;BME280_pressure;Samples;Min_cycle;Max_cycle;Signal;HPM_P1;HPM_P2
2023/09/24 00:01:48;;;;;;;7.28;4.35;;;;;;;10.77;82.97;102218.31;5036910;28;20100;-69
2023/09/24 00:04:14;;;;;;;6.53;4.00;;;;;;;10.80;82.78;102215.63;5039048;28;20017;-69
2023/09/24 00:06:39;;;;;;;4.93;4.07;;;;;;;10.84;82.70;102217.31;5038121;28;20502;-69
2023/09/24 00:09:04;;;;;;;5.55;3.97;;;;;;;10.86;82.13;102221.66;5039531;28;20067;-69
2023/09/24 00:11:29;;;;;;;5.55;3.20;;;;;;;10.84;81.40;102222.59;5042362;28;20029;-69
2023/09/24 00:13:55;;;;;;;5.28;3.85;;;;;;;10.84;81.52;102220.81;5040828;28;20029;-69
2023/09/24 00:16:21;;;;;;;5.32;4.50;;;;;;;10.81;82.42;102226.16;5037170;28;20527;-69
2023/09/24 00:18:46;;;;;;;5.03;3.72;;;;;;;10.79;83.00;102233.25;5043702;28;20492;-69
2023/09/24 00:21:12;;;;;;;6.65;4.40;;;;;;;10.81;82.32;102233.22;5035586;28;20083;-69
2023/09/24 00:23:38;;;;;;;6.13;4.05;;;;;;;10.81;82.41;102233.22;5022577;28;20392;-69
2023/09/24 00:26:04;;;;;;;6.97;4.40;;;;;;;10.76;83.15;102237.72;5051467;28;20028;-69
2023/09/24 00:28:29;;;;;;;9.05;4.28;;;;;;;10.74;82.71;102227.19;5046523;28;20021;-69
2023/09/24 00:30:55;;;;;;;7.88;4.40;;;;;;;10.74;82.32;102232.47;5035818;28;20032;-69
2023/09/24 00:33:21;;;;;;;7.70;4.78;;;;;;;10.75;82.85;102233.34;5036260;28;20067;-69
2023/09/24 00:35:47;;;;;;;6.75;4.75;;;;;;;10.70;83.30;102244.00;5037439;28;20112;-69
2023/09/24 00:38:12;;;;;;;6.18;4.70;;;;;;;10.69;82.98;102234.34;5050582;28;20116;-69
2023/09/24 00:40:37;;;;;;;4.88;4.03;;;;;;;10.74;81.86;102237.78;5039923;28;20047;-69
2023/09/24 00:43:03;;;;;;;6.30;4.78;;;;;;;10.67;83.12;102239.63;5039346;28;20065;-69
2023/09/24 00:45:28;;;;;;;6.70;4.75;;;;;;;10.61;83.95;102245.03;5041213;28;20061;-69
2023/09/24 00:47:56;;;;;;;5.93;4.80;;;;;;;10.57;83.54;102243.34;5040158;28;20031;-69
2023/09/24 00:50:24;;;;;;;5.95;4.60;;;;;;;10.60;83.97;102242.44;5048658;28;20037;-69
2023/09/24 00:52:53;;;;;;;5.22;3.58;;;;;;;10.65;84.01;102245.88;5050837;28;20025;-69
2023/09/24 00:55:19;;;;;;;4.97;3.42;;;;;;;10.64;83.07;102247.66;5043420;28;20051;-69
2023/09/24 00:57:47;;;;;;;4.25;3.00;;;;;;;10.52;81.64;102254.91;5033770;28;20088;-69
2023/09/24 01:00:16;;;;;;;4.18;3.47;;;;;;;10.49;82.14;102258.47;5044044;28;20392;-69
2023/09/24 01:02:42;;;;;;;5.97;3.00;;;;;;;10.51;82.54;102255.81;5053588;28;20029;-69
2023/09/24 01:05:10;;;;;;;6.18;4.22;;;;;;;10.52;82.54;102252.28;5025413;28;20591;-69
2023/09/24 01:07:36;;;;;;;3.70;3.30;;;;;;;10.51;82.14;102247.88;5051640;28;20488;-69
2023/09/24 01:10:02;;;;;;;6.40;4.25;;;;;;;10.46;82.57;102256.78;5049549;28;20048;-69
2023/09/24 01:12:29;;;;;;;4.88;3.67;;;;;;;10.43;81.06;102256.81;5049667;28;20773;-69
2023/09/24 01:14:57;;;;;;;6.82;4.97;;;;;;;10.45;82.17;102257.69;5043388;28;20021;-69
2023/09/24 01:17:25;;;;;;;8.40;5.40;;;;;;;10.42;82.78;102260.38;5041038;28;20384;-69
2023/09/24 01:19:53;;;;;;;6.60;5.32;;;;;;;10.42;83.55;102255.06;5048711;28;20056;-69
2023/09/24 01:22:19;;;;;;;7.32;4.57;;;;;;;10.37;82.52;102256.06;5036639;28;20029;-69
2023/09/24 01:24:44;;;;;;;6.40;4.53;;;;;;;10.31;82.76;102250.88;5045707;28;20025;-69
2023/09/24 01:27:09;;;;;;;5.63;4.72;;;;;;;10.33;82.35;102254.34;5018222;28;20729;-69
2023/09/24 01:29:36;;;;;;;5.97;4.97;;;;;;;10.23;82.68;102251.81;5044929;28;20033;-69
2023/09/24 01:32:04;;;;;;;5.65;4.13;;;;;;;10.10;82.44;102252.91;5047055;28;20031;-69
2023/09/24 01:34:29;;;;;;;7.22;4.40;;;;;;;10.07;83.17;102252.97;5043216;28;20038;-69
2023/09/24 01:36:54;;;;;;;5.38;4.57;;;;;;;10.03;82.72;102251.28;5036717;28;20096;-69
2023/09/24 01:39:25;;;;;;;5.63;4.47;;;;;;;9.99;83.34;102246.94;5042760;28;20407;-69
2023/09/24 01:41:51;;;;;;;5.57;5.00;;;;;;;9.99;83.71;102246.06;5041467;28;20032;-69
2023/09/24 01:44:16;;;;;;;7.00;4.93;;;;;;;9.98;81.82;102247.84;5044624;28;20993;-69
2023/09/24 01:46:42;;;;;;;8.25;4.10;;;;;;;10.06;83.27;102245.94;5041081;28;20029;-69
2023/09/24 01:49:10;;;;;;;6.88;5.05;;;;;;;10.03;82.79;102247.78;5022855;28;20530;-69
2023/09/24 01:51:35;;;;;;;7.28;4.93;;;;;;;10.10;83.62;102250.28;5043445;28;20025;-69
2023/09/24 01:54:01;;;;;;;6.50;4.88;;;;;;;10.08;83.29;102249.44;5038972;28;20551;-69
2023/09/24 01:56:26;;;;;;;6.38;5.07;;;;;;;10.09;83.61;102250.31;5040033;28;20070;-68
2023/09/24 01:58:52;;;;;;;9.23;6.35;;;;;;;10.14;83.78;102244.03;5043607;28;20027;-69
2023/09/24 02:01:17;;;;;;;10.73;7.07;;;;;;;10.14;84.04;102243.19;5045346;28;20484;-69
2023/09/24 02:03:45;;;;;;;9.55;5.38;;;;;;;10.14;82.53;102243.19;5041468;28;20021;-69
2023/09/24 02:06:16;;;;;;;6.10;5.07;;;;;;;10.08;82.44;102246.78;5036515;28;20057;-69
2023/09/24 02:08:41;;;;;;;5.82;4.70;;;;;;;10.05;82.81;102243.31;5042863;28;20070;-69
2023/09/24 02:11:07;;;;;;;7.82;5.65;;;;;;;10.04;84.18;102239.81;5036947;28;20408;-69
2023/09/24 02:13:32;;;;;;;8.98;6.45;;;;;;;10.00;84.30;102240.75;5047045;28;20040;-69
2023/09/24 02:16:01;;;;;;;10.18;6.10;;;;;;;9.97;84.76;102241.66;5031794;28;20353;-69
2023/09/24 02:18:32;;;;;;;11.45;6.90;;;;;;;9.94;84.56;102247.00;5036254;28;20013;-69
2023/09/24 02:20:59;;;;;;;7.63;5.78;;;;;;;9.90;84.49;102258.50;5031976;28;20037;-69
2023/09/24 02:23:25;;;;;;;7.00;5.00;;;;;;;9.88;84.48;102262.06;5045205;28;20053;-69
2023/09/24 02:25:50;;;;;;;7.68;5.65;;;;;;;9.89;84.39;102263.81;5047424;28;20494;-68
2023/09/24 02:28:17;;;;;;;9.25;6.93;;;;;;;9.84;84.16;102261.25;5034982;28;20037;-69
2023/09/24 02:30:43;;;;;;;7.68;5.32;;;;;;;9.80;84.47;102274.53;5035515;28;20037;-69
2023/09/24 02:33:09;;;;;;;8.88;6.18;;;;;;;9.78;84.43;102271.88;5032660;28;20025;-68
2023/09/24 02:35:34;;;;;;;6.75;5.63;;;;;;;9.76;84.58;102271.03;5036015;28;20066;-69
2023/09/24 02:38:00;;;;;;;11.07;6.45;;;;;;;9.71;84.66;102271.09;5038097;28;20030;-69
2023/09/24 02:40:28;;;;;;;7.28;5.82;;;;;;;9.71;84.42;102270.22;5033931;28;20045;-69
2023/09/24 02:43:06;;;;;;;5.55;5.05;;;;;;;9.76;84.19;102270.16;5042060;28;20032;-69
2023/09/24 02:45:31;;;;;;;8.45;6.75;;;;;;;9.76;84.28;102268.41;5034000;28;20036;-69
2023/09/24 02:47:57;;;;;;;8.70;6.82;;;;;;;9.68;84.27;102271.13;5046695;28;20041;-69
2023/09/24 02:50:24;;;;;;;7.80;5.30;;;;;;;9.64;84.30;102279.13;5050793;28;20035;-69
2023/09/24 02:52:53;;;;;;;6.28;5.00;;;;;;;9.62;83.68;102278.28;5035983;28;20056;-69
2023/09/24 02:55:19;;;;;;;9.15;6.45;;;;;;;9.61;84.56;102272.13;5044831;28;20013;-69
2023/09/24 02:57:46;;;;;;;7.07;4.75;;;;;;;9.59;84.10;102276.53;5035859;28;20025;-68
2023/09/24 03:00:18;;;;;;;7.65;6.22;;;;;;;9.57;84.50;102275.69;5015459;28;20026;-69
2023/09/24 03:02:48;;;;;;;6.50;5.38;;;;;;;9.57;83.57;102270.41;5039335;28;20037;-69
2023/09/24 03:05:19;;;;;;;8.25;5.68;;;;;;;9.58;83.82;102261.59;5038020;28;20461;-69
2023/09/24 03:07:45;;;;;;;7.47;5.55;;;;;;;9.61;83.99;102276.53;5038891;28;20040;-69
2023/09/24 03:10:13;;;;;;;7.53;5.50;;;;;;;9.62;84.55;102275.63;5040031;28;20059;-69
2023/09/24 03:12:43;;;;;;;8.63;5.68;;;;;;;9.53;84.37;102271.34;5036768;28;20025;-69
2023/09/24 03:15:11;;;;;;;8.75;5.47;;;;;;;9.48;84.86;102277.59;5037153;28;20436;-69
2023/09/24 03:17:38;;;;;;;5.55;4.72;;;;;;;9.39;84.60;102276.78;5040510;28;20086;-69
2023/09/24 03:20:14;;;;;;;8.70;5.72;;;;;;;9.37;85.26;102281.22;5041112;28;20143;-69
2023/09/24 03:22:42;;;;;;;10.15;5.50;;;;;;;9.38;84.99;102282.97;5033833;28;20021;-69
2023/09/24 03:25:10;;;;;;;10.77;6.97;;;;;;;9.40;84.95;102280.31;5038759;28;20029;-69
2023/09/24 03:27:36;;;;;;;9.27;7.22;;;;;;;9.38;84.48;102287.38;5039430;28;20029;-69
2023/09/24 03:30:02;;;;;;;10.15;7.75;;;;;;;9.35;85.05;102290.03;5041172;28;20494;-69
2023/09/24 03:32:31;;;;;;;9.68;7.00;;;;;;;9.29;85.36;102291.00;5046657;28;20057;-69
2023/09/24 03:34:56;;;;;;;10.15;7.68;;;;;;;9.31;85.24;102293.59;5044151;28;20040;-69
2023/09/24 03:37:22;;;;;;;7.65;6.70;;;;;;;9.29;85.35;102300.69;5043605;28;20012;-69
2023/09/24 03:39:47;;;;;;;10.45;7.63;;;;;;;9.26;85.29;102308.63;5040907;28;20087;-69
2023/09/24 03:42:14;;;;;;;12.60;7.38;;;;;;;9.35;85.28;102295.31;5047506;28;20028;-68
2023/09/24 03:44:39;;;;;;;14.70;9.27;;;;;;;9.41;84.35;102301.38;5045240;28;22159;-68
2023/09/24 03:47:04;;;;;;;8.93;7.75;;;;;;;9.40;85.59;102304.06;5053686;28;20108;-68
2023/09/24 03:49:30;;;;;;;9.23;7.38;;;;;;;9.32;85.25;102304.13;5062415;28;20487;-69
2023/09/24 03:51:55;;;;;;;8.35;6.82;;;;;;;9.29;85.14;102304.19;5040772;28;20033;-69
2023/09/24 03:54:20;;;;;;;7.35;6.50;;;;;;;9.29;84.97;102311.25;5040485;28;20358;-69
2023/09/24 03:56:45;;;;;;;8.20;6.28;;;;;;;9.32;85.53;102316.47;5041932;28;20025;-69
2023/09/24 03:59:11;;;;;;;10.85;6.25;;;;;;;9.31;85.24;102312.94;5042092;28;20033;-68
2023/09/24 04:01:39;;;;;;;10.50;6.03;;;;;;;9.30;85.40;102310.34;5042886;28;20028;-69
2023/09/24 04:04:05;;;;;;;8.60;6.65;;;;;;;9.27;85.39;102311.22;5040199;28;20182;-69
2023/09/24 04:06:30;;;;;;;7.40;6.13;;;;;;;9.25;85.28;102312.16;5040693;28;20036;-68
2023/09/24 04:08:56;;;;;;;6.05;5.07;;;;;;;9.24;84.90;102310.41;5038718;28;20033;-68
2023/09/24 04:11:21;;;;;;;7.43;5.50;;;;;;;9.27;85.43;102316.50;5049447;28;20107;-68
2023/09/24 04:13:46;;;;;;;6.65;5.28;;;;;;;9.26;85.17;102321.81;5042513;28;20028;-68
2023/09/24 04:16:13;;;;;;;6.40;5.65;;;;;;;9.29;85.21;102329.72;5040903;28;20041;-69
2023/09/24 04:18:41;;;;;;;11.20;5.90;;;;;;;9.28;85.22;102334.13;5046304;28;20026;-68
2023/09/24 04:21:17;;;;;;;5.38;4.82;;;;;;;9.28;85.04;102326.19;5046329;28;20469;-68
2023/09/24 04:23:42;;;;;;;6.35;5.38;;;;;;;9.33;84.49;102323.50;5038965;28;20111;-69
2023/09/24 04:26:16;;;;;;;6.25;4.97;;;;;;;9.35;84.28;102325.22;5042763;28;20115;-69
2023/09/24 04:28:41;;;;;;;7.25;5.45;;;;;;;9.42;84.38;102326.06;5039641;28;20182;-69
2023/09/24 04:31:06;;;;;;;9.95;6.15;;;;;;;9.36;84.49;102332.25;5045537;28;20191;-69
2023/09/24 04:33:32;;;;;;;8.73;5.43;;;;;;;9.27;85.26;102328.84;5032871;28;20032;-69
2023/09/24 04:35:57;;;;;;;8.52;4.53;;;;;;;9.24;84.76;102331.53;5038005;28;20477;-69
2023/09/24 04:38:22;;;;;;;7.05;4.50;;;;;;;9.19;84.95;102326.31;5049779;28;20033;-69
2023/09/24 04:40:48;;;;;;;8.52;5.70;;;;;;;9.18;85.27;102325.41;5035277;28;20029;-69
2023/09/24 04:43:15;;;;;;;7.20;4.70;;;;;;;9.22;84.79;102330.66;5036582;28;20040;-69
2023/09/24 04:45:40;;;;;;;7.35;4.90;;;;;;;9.23;84.28;102330.63;5043275;28;20029;-69
2023/09/24 04:48:06;;;;;;;6.93;5.00;;;;;;;9.28;85.13;102339.41;5036386;28;20029;-69
2023/09/24 04:50:32;;;;;;;7.47;4.70;;;;;;;9.29;84.38;102333.22;5044374;28;20032;-69
2023/09/24 04:52:57;;;;;;;7.50;4.13;;;;;;;9.31;83.92;102331.44;5037603;28;20147;-68
2023/09/24 04:55:24;;;;;;;7.45;4.78;;;;;;;9.31;84.34;102339.34;5033685;28;20581;-68
2023/09/24 04:57:50;;;;;;;6.25;4.10;;;;;;;9.32;83.46;102330.53;5033474;28;20112;-69
2023/09/24 05:00:16;;;;;;;6.97;4.10;;;;;;;9.34;83.33;102328.75;5035571;28;20124;-69
2023/09/24 05:02:41;;;;;;;5.95;4.40;;;;;;;9.36;83.15;102328.75;5037751;28;20474;-68
2023/09/24 05:05:07;;;;;;;5.80;4.20;;;;;;;9.36;83.71;102331.38;5038074;28;20029;-68
2023/09/24 05:07:32;;;;;;;8.02;4.72;;;;;;;9.35;84.09;102330.50;5038549;28;20095;-68
2023/09/24 05:09:57;;;;;;;7.50;4.88;;;;;;;9.30;83.86;102332.31;5044883;28;20246;-68
2023/09/24 05:12:23;;;;;;;6.63;4.25;;;;;;;9.19;84.29;102332.44;5038145;28;20326;-69
2023/09/24 05:14:48;;;;;;;5.28;4.15;;;;;;;9.18;84.15;102335.94;5031555;28;20083;-68
2023/09/24 05:17:13;;;;;;;5.78;5.15;;;;;;;9.25;84.01;102343.81;5038377;28;20029;-68
2023/09/24 05:19:39;;;;;;;7.10;4.10;;;;;;;9.30;83.82;102348.16;5038683;28;20051;-68
2023/09/24 05:22:05;;;;;;;7.07;4.20;;;;;;;9.32;83.55;102346.38;5046521;28;20040;-68
2023/09/24 05:24:31;;;;;;;5.32;4.32;;;;;;;9.34;82.60;102347.25;5040655;28;20569;-68
2023/09/24 05:26:57;;;;;;;5.50;4.30;;;;;;;9.36;83.03;102347.22;5038194;28;20741;-68
2023/09/24 05:29:23;;;;;;;6.65;4.82;;;;;;;9.36;83.04;102350.72;5023070;28;20033;-68
2023/09/24 05:31:49;;;;;;;7.03;4.70;;;;;;;9.36;83.69;102353.38;5049723;28;20090;-68
2023/09/24 05:34:14;;;;;;;6.25;4.32;;;;;;;9.32;83.54;102358.69;5035919;28;20503;-69
2023/09/24 05:36:42;;;;;;;6.22;4.05;;;;;;;9.27;83.00;102371.94;5045246;28;20024;-69
2023/09/24 05:39:09;;;;;;;8.07;4.60;;;;;;;9.23;84.08;102364.06;5040484;28;20052;-69
2023/09/24 05:41:34;;;;;;;9.85;4.57;;;;;;;9.24;83.96;102371.97;5042957;28;20111;-69
2023/09/24 05:44:04;;;;;;;7.65;4.32;;;;;;;9.29;82.97;102375.44;5041838;28;20203;-69
2023/09/24 05:46:30;;;;;;;7.28;4.68;;;;;;;9.32;82.99;102380.69;5040764;28;20031;-69
2023/09/24 05:48:56;;;;;;;8.68;4.57;;;;;;;9.36;83.68;102381.53;5041259;28;20400;-69
2023/09/24 05:51:22;;;;;;;6.22;3.88;;;;;;;9.36;83.77;102392.09;5038328;28;20036;-69
2023/09/24 05:53:47;;;;;;;5.55;4.88;;;;;;;9.35;83.94;102391.22;5046257;28;20025;-69
2023/09/24 05:56:12;;;;;;;13.30;5.00;;;;;;;9.33;84.07;102381.59;5039121;28;20392;-69
2023/09/24 05:58:38;;;;;;;7.05;5.15;;;;;;;9.35;83.90;102390.34;5036780;28;20044;-69
2023/09/24 06:01:03;;;;;;;6.05;4.20;;;;;;;9.40;84.15;102394.69;5033186;28;20029;-69
2023/09/24 06:03:29;;;;;;;7.93;4.93;;;;;;;9.40;83.95;102397.31;5038008;28;20029;-69
2023/09/24 06:05:54;;;;;;;6.20;4.65;;;;;;;9.44;84.40;102400.81;5032472;28;20231;-68
2023/09/24 06:08:20;;;;;;;4.88;4.00;;;;;;;9.51;84.19;102393.69;5036115;28;20295;-69
2023/09/24 06:10:46;;;;;;;4.95;4.25;;;;;;;9.58;83.88;102393.59;5037200;28;20033;-69
2023/09/24 06:13:13;;;;;;;6.85;4.85;;;;;;;9.63;84.56;102391.78;5034685;28;20542;-68
2023/09/24 06:15:40;;;;;;;7.53;4.65;;;;;;;9.69;84.00;102393.47;5040782;28;20447;-69
2023/09/24 06:18:05;;;;;;;8.10;6.22;;;;;;;9.64;84.09;102390.03;5040008;28;20025;-68
2023/09/24 06:20:30;;;;;;;7.05;4.55;;;;;;;9.65;84.65;102397.03;5036969;28;20172;-68
2023/09/24 06:22:57;;;;;;;7.28;5.03;;;;;;;9.64;85.14;102400.59;5037204;28;20035;-69
2023/09/24 06:25:23;;;;;;;9.18;5.18;;;;;;;9.67;85.26;102401.44;5037666;28;20041;-68
2023/09/24 06:27:49;;;;;;;7.70;5.13;;;;;;;9.80;85.59;102406.59;5032768;28;20017;-68
2023/09/24 06:30:14;;;;;;;5.38;4.70;;;;;;;9.88;85.24;102405.56;5040810;28;20102;-68
2023/09/24 06:32:39;;;;;;;8.50;5.57;;;;;;;9.96;85.71;102409.00;5043149;28;20032;-68
2023/09/24 06:35:05;;;;;;;6.68;4.82;;;;;;;10.03;85.30;102414.22;5041676;28;20150;-68
2023/09/24 06:37:31;;;;;;;8.20;5.55;;;;;;;10.06;85.84;102412.41;5031038;28;20009;-68
2023/09/24 06:39:57;;;;;;;8.20;5.10;;;;;;;10.10;85.87;102418.53;5045124;28;20062;-69
2023/09/24 06:42:22;;;;;;;6.20;4.60;;;;;;;10.14;85.82;102429.03;5037338;28;20520;-68
2023/09/24 06:44:50;;;;;;;5.65;4.30;;;;;;;10.18;85.67;102424.59;5036292;28;20112;-69
2023/09/24 06:47:15;;;;;;;8.38;4.50;;;;;;;10.24;85.80;102424.53;5038310;28;20018;-69
2023/09/24 06:49:40;;;;;;;6.60;4.70;;;;;;;10.31;86.00;102425.34;5036636;28;20545;-69
2023/09/24 06:52:05;;;;;;;6.18;5.10;;;;;;;10.33;86.28;102423.53;5036940;28;20026;-69
2023/09/24 06:54:34;;;;;;;10.10;4.30;;;;;;;10.34;86.27;102420.00;5036542;28;20037;-69
2023/09/24 06:57:00;;;;;;;6.15;4.20;;;;;;;10.36;86.40;102423.50;5034341;28;20025;-69
2023/09/24 06:59:25;;;;;;;13.15;4.80;;;;;;;10.42;86.27;102429.56;5040250;28;20025;-69
2023/09/24 07:01:53;;;;;;;8.50;4.82;;;;;;;10.46;86.50;102425.13;5037927;28;20033;-69
2023/09/24 07:04:18;;;;;;;9.23;4.45;;;;;;;10.50;86.38;102433.91;5037805;28;20017;-69
2023/09/24 07:06:43;;;;;;;10.57;3.88;;;;;;;10.55;85.85;102432.94;5040551;28;20025;-69
2023/09/24 07:09:09;;;;;;;9.13;4.45;;;;;;;10.61;86.06;102432.81;5040811;28;20109;-69
2023/09/24 07:11:37;;;;;;;4.38;3.55;;;;;;;10.68;85.80;102429.22;5039501;28;20041;-69
2023/09/24 07:14:06;;;;;;;7.38;4.32;;;;;;;10.75;85.96;102434.41;5040559;28;20065;-69
2023/09/24 07:16:31;;;;;;;10.10;4.55;;;;;;;10.79;85.86;102431.69;5043746;28;20032;-69
2023/09/24 07:18:58;;;;;;;8.27;4.75;;;;;;;10.85;86.28;102434.22;5039063;28;20438;-70
2023/09/24 07:21:26;;;;;;;8.20;4.45;;;;;;;10.93;86.38;102439.41;5044445;28;20040;-69
2023/09/24 07:23:54;;;;;;;5.80;4.15;;;;;;;11.02;86.48;102438.38;5042558;28;20113;-69
2023/09/24 07:26:20;;;;;;;6.38;4.18;;;;;;;11.09;86.34;102446.16;5041030;28;20390;-69
2023/09/24 07:28:46;;;;;;;8.43;4.57;;;;;;;11.19;86.36;102444.25;5038916;28;20487;-69
2023/09/24 07:31:16;;;;;;;9.50;4.80;;;;;;;11.27;86.08;102444.13;5041033;28;20037;-69
2023/09/24 07:33:42;;;;;;;10.27;4.70;;;;;;;11.31;85.31;102451.13;5039770;28;20030;-70
2023/09/24 07:36:08;;;;;;;6.57;4.10;;;;;;;11.38;85.40;102455.41;5041939;28;20028;-70
2023/09/24 07:38:34;;;;;;;7.13;3.75;;;;;;;11.48;85.72;102457.88;5041015;28;20044;-70
2023/09/24 07:40:59;;;;;;;6.70;4.60;;;;;;;11.63;86.33;102455.84;5044997;28;20033;-69
2023/09/24 07:43:25;;;;;;;8.75;5.15;;;;;;;11.78;86.26;102459.97;5038896;28;20126;-69
2023/09/24 07:45:50;;;;;;;10.82;4.45;;;;;;;12.03;85.31;102455.97;5038965;28;20032;-70
2023/09/24 07:48:16;;;;;;;6.78;4.40;;;;;;;12.24;85.38;102460.81;5038398;28;20109;-70
2023/09/24 07:50:50;;;;;;;11.55;4.60;;;;;;;12.58;84.12;102454.78;5043003;28;20037;-69
2023/09/24 07:53:15;;;;;;;8.57;4.90;;;;;;;12.99;83.44;102466.22;5037218;28;20033;-70
2023/09/24 07:55:41;;;;;;;9.43;4.03;;;;;;;13.31;81.25;102467.22;5021265;28;20042;-70
2023/09/24 07:58:06;;;;;;;7.07;3.95;;;;;;;13.67;80.02;102462.75;5034276;28;20032;-69
2023/09/24 08:00:31;;;;;;;6.57;3.10;;;;;;;13.98;79.68;102470.72;5047495;28;20156;-69
2023/09/24 08:02:57;;;;;;;7.07;4.18;;;;;;;14.43;78.02;102463.19;5035110;28;20024;-70
2023/09/24 08:05:22;;;;;;;7.82;3.50;;;;;;;14.78;76.50;102464.81;5048171;28;20527;-70
2023/09/24 08:07:47;;;;;;;4.68;3.00;;;;;;;14.97;73.76;102466.88;5039752;28;20510;-70
2023/09/24 08:10:12;;;;;;;6.63;3.15;;;;;;;15.31;74.10;102469.28;5037734;28;20045;-70
2023/09/24 08:12:40;;;;;;;8.23;3.10;;;;;;;15.54;72.62;102466.69;5043438;28;20028;-70
2023/09/24 08:15:05;;;;;;;5.15;2.60;;;;;;;15.82;71.21;102469.28;5051128;28;20073;-70
2023/09/24 08:17:31;;;;;;;4.05;2.67;;;;;;;16.07;70.67;102465.72;5041178;28;20478;-70
2023/09/24 08:19:56;;;;;;;4.80;2.63;;;;;;;16.22;70.38;102467.78;5050088;28;20073;-70
2023/09/24 08:22:23;;;;;;;5.68;2.60;;;;;;;16.43;69.40;102467.91;5040603;28;20045;-70
2023/09/24 08:24:48;;;;;;;5.05;2.30;;;;;;;16.64;69.08;102461.72;5055723;28;20033;-69
2023/09/24 08:27:13;;;;;;;7.25;2.80;;;;;;;16.89;67.49;102476.81;5052469;28;20123;-69
2023/09/24 08:29:39;;;;;;;9.32;2.90;;;;;;;17.27;67.92;102476.09;5052043;28;20124;-70
2023/09/24 08:32:04;;;;;;;3.65;2.30;;;;;;;17.46;65.44;102478.00;5050958;28;20025;-69
2023/09/24 08:34:30;;;;;;;4.47;2.50;;;;;;;17.66;63.50;102461.94;5051078;28;20554;-69
2023/09/24 08:36:55;;;;;;;4.35;2.10;;;;;;;17.90;64.48;102464.50;5057154;28;20029;-69
2023/09/24 08:39:20;;;;;;;3.35;2.38;;;;;;;18.35;63.39;102470.41;5048370;28;20609;-70
2023/09/24 08:41:45;;;;;;;5.05;2.45;;;;;;;18.71;61.38;102458.06;5050604;28;20063;-69
2023/09/24 08:44:17;;;;;;;6.72;2.42;;;;;;;19.17;62.93;102467.38;5051282;28;20026;-69
2023/09/24 08:46:47;;;;;;;6.03;2.38;;;;;;;19.55;59.56;102480.66;5061584;28;20393;-69
2023/09/24 08:49:13;;;;;;;5.13;2.05;;;;;;;19.57;58.17;102470.69;5037503;28;20154;-69
2023/09/24 08:51:40;;;;;;;3.83;2.15;;;;;;;20.01;57.47;102479.13;5054655;28;20480;-68
2023/09/24 08:54:06;;;;;;;5.32;2.08;;;;;;;20.17;55.05;102484.50;5045437;28;20025;-69
2023/09/24 08:56:31;;;;;;;4.90;1.40;;;;;;;20.62;56.23;102473.06;5048567;28;20040;-69
2023/09/24 08:58:57;;;;;;;6.25;1.92;;;;;;;21.30;54.51;102477.22;5049326;28;20021;-69
2023/09/24 09:01:22;;;;;;;6.85;1.85;;;;;;;21.47;55.26;102478.94;5039778;28;20104;-73
2023/09/24 09:03:48;;;;;;;3.40;1.52;;;;;;;22.30;52.46;102470.19;5044137;28;20030;-70
2023/09/24 09:06:35;;;;;;;3.60;1.52;;;;;;;22.89;52.71;102465.47;5043999;28;20025;-71
2023/09/24 09:09:01;;;;;;;3.17;1.40;;;;;;;23.30;47.06;102475.31;5035078;28;20488;-71
2023/09/24 09:11:46;;;;;;;3.30;1.65;;;;;;;23.32;50.53;102470.69;5043488;28;20033;-71
2023/09/24 09:14:12;;;;;;;3.75;2.00;;;;;;;23.35;46.20;102478.56;5049703;28;20062;-71
2023/09/24 09:16:55;;;;;;;2.08;1.10;;;;;;;23.97;48.60;102466.22;5047585;28;20024;-71
2023/09/24 09:19:20;;;;;;;2.80;1.50;;;;;;;24.61;45.04;102456.16;5043293;28;20823;-71
2023/09/24 09:21:45;;;;;;;3.67;1.52;;;;;;;24.37;42.69;102459.69;5045239;28;20269;-71
2023/09/24 09:24:24;;;;;;;2.65;1.30;;;;;;;24.99;44.20;102463.25;5043206;28;20467;-71
2023/09/24 09:26:54;;;;;;;2.85;1.17;;;;;;;24.98;42.09;102448.00;5059859;28;20025;-71
2023/09/24 09:29:21;;;;;;;3.72;1.40;;;;;;;25.31;42.23;102445.47;5045907;28;20493;-71
2023/09/24 09:31:49;;;;;;;4.47;1.40;;;;;;;25.74;40.17;102444.84;5041078;28;20086;-71
2023/09/24 09:34:15;;;;;;;3.28;1.35;;;;;;;25.79;39.98;102441.78;5048061;28;20028;-71
2023/09/24 09:36:40;;;;;;;2.92;1.48;;;;;;;26.11;39.64;102445.50;5044634;28;20082;-71
2023/09/24 09:39:06;;;;;;;1.85;1.13;;;;;;;27.02;38.85;102441.59;5044278;28;20033;-71
2023/09/24 09:41:33;;;;;;;7.05;1.55;;;;;;;26.89;39.15;102433.63;5040853;28;20032;-71
2023/09/24 09:44:05;;;;;;;4.28;1.63;;;;;;;26.41;38.40;102428.56;5041728;28;20547;-71
2023/09/24 09:46:33;;;;;;;2.90;1.50;;;;;;;27.08;37.36;102424.81;5038150;28;20765;-71
2023/09/24 09:49:07;;;;;;;4.10;1.23;;;;;;;27.62;35.16;102436.47;5035150;28;20029;-71
2023/09/24 09:51:45;;;;;;;5.65;1.42;;;;;;;27.27;37.31;102423.22;5036169;28;20083;-71
2023/09/24 09:54:11;;;;;;;3.83;1.27;;;;;;;27.95;35.70;102411.78;5042603;28;20028;-71
2023/09/24 09:56:37;;;;;;;2.17;1.10;;;;;;;28.52;33.56;102412.09;5042399;28;20048;-71
2023/09/24 09:59:07;;;;;;;3.25;1.13;;;;;;;27.70;34.61;102414.94;5033090;28;20452;-72
2023/09/24 10:01:33;;;;;;;2.15;1.13;;;;;;;28.02;33.13;102417.53;5042435;28;20033;-72
2023/09/24 10:04:04;;;;;;;5.13;1.75;;;;;;;28.11;34.49;102407.69;5041142;28;20022;-71
2023/09/24 10:06:35;;;;;;;2.60;1.27;;;;;;;28.34;34.97;102413.75;5048086;28;20033;-71
2023/09/24 10:09:01;;;;;;;2.10;1.13;;;;;;;28.79;33.56;102402.41;5053749;28;20049;-71
2023/09/24 10:11:32;;;;;;;2.95;1.20;;;;;;;29.58;32.57;102404.94;5045359;28;20085;-76
2023/09/24 10:13:58;;;;;;;2.77;1.30;;;;;;;29.52;31.44;102400.91;5040185;28;20036;-75
2023/09/24 10:16:23;;;;;;;4.30;1.30;;;;;;;29.50;31.71;102400.19;5042850;28;20067;-75
2023/09/24 10:18:56;;;;;;;4.53;1.27;;;;;;;29.39;32.00;102386.75;5040444;28;20089;-74
2023/09/24 10:21:32;;;;;;;3.63;1.40;;;;;;;29.44;32.90;102392.59;5048320;28;20162;-75
2023/09/24 10:24:17;;;;;;;3.35;1.10;;;;;;;30.18;33.17;102389.91;5042502;28;20090;-75
2023/09/24 10:26:54;;;;;;;3.08;1.10;;;;;;;30.07;31.11;102389.22;5030754;28;20132;-75
2023/09/24 10:29:40;;;;;;;4.25;1.20;;;;;;;30.74;30.75;102390.72;5042285;28;20505;-71
2023/09/24 10:32:08;;;;;;;3.28;1.33;;;;;;;31.52;31.94;102384.47;5033765;28;20040;-72
2023/09/24 10:34:53;;;;;;;4.07;1.40;;;;;;;32.27;31.52;102388.28;5053229;28;20383;-71
2023/09/24 10:37:19;;;;;;;2.40;1.05;;;;;;;32.00;27.60;102387.50;5046727;28;20473;-70
2023/09/24 10:40:00;;;;;;;2.65;1.08;;;;;;;31.60;29.03;102387.28;5048281;28;20634;-71
2023/09/24 10:42:31;;;;;;;1.73;0.95;;;;;;;30.96;28.54;102386.59;5033702;28;20041;-71
2023/09/24 10:45:05;;;;;;;2.38;0.90;;;;;;;30.23;31.59;102378.53;5036345;28;20040;-71
2023/09/24 10:47:33;;;;;;;3.03;1.10;;;;;;;29.71;29.53;102380.94;5041411;28;20491;-71
2023/09/24 10:50:05;;;;;;;2.25;1.00;;;;;;;29.52;29.42;102372.78;5048675;28;20033;-71
2023/09/24 10:52:48;;;;;;;;;;;;;;;29.61;31.94;102377.38;5043428;28;20085;-71
2023/09/24 10:55:18;;;;;;;2.00;1.15;;;;;;;28.98;33.27;102378.78;5041429;28;19923;-72
2023/09/24 10:57:50;;;;;;;4.13;1.15;;;;;;;28.88;31.67;102385.22;5042263;28;20354;-72
2023/09/24 11:00:17;;;;;;;1.88;0.85;;;;;;;28.39;31.60;102368.84;5044049;28;20041;-72
2023/09/24 11:02:43;;;;;;;2.50;1.00;;;;;;;28.34;31.89;102376.56;5039430;28;20485;-71
2023/09/24 11:05:09;;;;;;;2.28;1.00;;;;;;;27.85;32.64;102372.84;5040736;28;20468;-72
2023/09/24 11:07:35;;;;;;;2.25;1.10;;;;;;;28.43;31.81;102374.88;5034443;28;20052;-72
2023/09/24 11:10:00;;;;;;;3.13;1.50;;;;;;;28.57;32.68;102381.75;5042658;28;20029;-71
2023/09/24 11:12:26;;;;;;;2.05;1.02;;;;;;;28.71;30.46;102384.06;5045434;28;20033;-72
2023/09/24 11:14:54;;;;;;;2.88;1.10;;;;;;;28.16;33.42;102370.03;5041857;28;20028;-72
2023/09/24 11:17:19;;;;;;;1.63;1.00;;;;;;;27.88;32.37;102363.53;5041214;28;20035;-71
2023/09/24 11:19:47;;;;;;;2.45;1.17;;;;;;;27.97;34.46;102366.28;5043609;28;20025;-72
2023/09/24 11:22:26;;;;;;;2.72;1.05;;;;;;;28.37;33.34;102365.41;5042727;28;20528;-72
2023/09/24 11:25:11;;;;;;;4.53;1.35;;;;;;;28.01;32.88;102358.72;5038225;28;20036;-72
2023/09/24 11:27:47;;;;;;;2.88;1.60;;;;;;;26.93;33.72;102367.22;5034675;28;20041;-72
2023/09/24 11:30:15;;;;;;;2.78;1.20;;;;;;;27.10;33.35;102367.69;5041646;28;20163;-72